Time;durP1;ratioP1;P1;durP2;ratioP2;P2;SDS_P1;SDS_P2;PMS_P1;PMS_P2;Temp;Humidity;BMP_temperature;BMP_pressure;BME280_temperature;BME280_humidity;BME280_pressure;Samples;Min_cycle;Max_cycle;Signal;HPM_P1;HPM_P2
2024/02/25 00:01:55;;;;;;;0.50;0.50;;;6.00;99.90;;;;;;4973026;28;20118;-65
2024/02/25 00:04:22;;;;;;;0.50;0.50;;;6.00;99.90;;;;;;4975370;28;20078;-64
2024/02/25 00:06:48;;;;;;;0.65;0.60;;;6.00;99.90;;;;;;4978799;28;20050;-65
2024/02/25 00:09:15;;;;;;;0.50;0.50;;;5.90;99.90;;;;;;4973735;28;20045;-65
2024/02/25 00:11:42;;;;;;;0.55;0.55;;;5.90;99.90;;;;;;4973002;28;20054;-64
2024/02/25 00:14:09;;;;;;;0.90;0.50;;;5.90;99.90;;;;;;4971091;28;20054;-64
2024/02/25 00:16:36;;;;;;;1.08;0.60;;;5.80;99.90;;;;;;4962982;28;20070;-64
2024/02/25 00:19:03;;;;;;;1.75;0.60;;;5.70;99.90;;;;;;4967710;28;20074;-65
2024/02/25 00:21:30;;;;;;;0.73;0.50;;;5.70;99.90;;;;;;4968299;28;20047;-65
2024/02/25 00:23:57;;;;;;;0.98;0.70;;;5.60;99.90;;;;;;4968609;28;20145;-65
2024/02/25 00:26:24;;;;;;;1.08;0.60;;;5.60;99.90;;;;;;4963790;28;20450;-65
2024/02/25 00:28:51;;;;;;;0.52;0.52;;;5.70;99.90;;;;;;4969516;28;20070;-65
2024/02/25 00:31:18;;;;;;;3.50;0.60;;;5.90;99.90;;;;;;4945326;23;20047;-63
2024/02/25 00:33:46;;;;;;;0.85;0.60;;;5.80;99.90;;;;;;4931703;29;20500;-63
2024/02/25 00:36:13;;;;;;;0.93;0.55;;;5.90;99.90;;;;;;4930963;29;20500;-63
2024/02/25 00:38:40;;;;;;;0.68;0.60;;;5.80;99.90;;;;;;4928495;29;20056;-60
2024/02/25 00:41:08;;;;;;;0.55;0.55;;;5.80;99.90;;;;;;4928328;29;20529;-60
2024/02/25 00:43:35;;;;;;;1.35;0.80;;;5.80;99.90;;;;;;4932418;29;20054;-61
2024/02/25 00:46:01;;;;;;;0.57;0.43;;;5.90;99.90;;;;;;4931820;29;20059;-60
2024/02/25 00:48:28;;;;;;;0.98;0.52;;;5.90;99.90;;;;;;4936553;29;20512;-59
2024/02/25 00:50:55;;;;;;;0.70;0.70;;;5.90;99.90;;;;;;4935137;29;20060;-61
2024/02/25 00:53:22;;;;;;;0.60;0.60;;;5.80;99.90;;;;;;4934432;29;20066;-60
2024/02/25 00:55:48;;;;;;;0.73;0.68;;;5.70;99.90;;;;;;4938850;29;20086;-61
2024/02/25 00:58:15;;;;;;;0.80;0.63;;;5.60;99.90;;;;;;4937807;29;20149;-60
2024/02/25 01:00:42;;;;;;;0.70;0.70;;;5.70;99.90;;;;;;4935629;28;20062;-61
2024/02/25 01:03:09;;;;;;;0.65;0.65;;;5.70;99.90;;;;;;4937950;29;20044;-61
2024/02/25 01:05:36;;;;;;;0.82;0.65;;;5.60;99.90;;;;;;4937121;29;20040;-61
2024/02/25 01:08:04;;;;;;;1.23;0.70;;;5.60;99.90;;;;;;4934860;29;20047;-61
2024/02/25 01:10:31;;;;;;;1.15;0.50;;;5.70;99.90;;;;;;4933281;29;20544;-60
2024/02/25 01:12:58;;;;;;;0.73;0.60;;;5.90;99.90;;;;;;4937868;29;20134;-61
2024/02/25 01:15:24;;;;;;;1.58;0.70;;;6.00;99.90;;;;;;4926922;29;20496;-61
2024/02/25 01:17:51;;;;;;;1.55;0.80;;;6.00;99.90;;;;;;4930743;29;20137;-61
2024/02/25 01:20:18;;;;;;;0.70;0.70;;;6.00;99.90;;;;;;4932835;28;20055;-61
2024/02/25 01:22:45;;;;;;;0.70;0.70;;;6.10;99.90;;;;;;4929766;29;20047;-61
2024/02/25 01:25:11;;;;;;;1.73;0.70;;;6.20;99.90;;;;;;4930817;29;20048;-61
2024/02/25 01:27:39;;;;;;;1.15;0.70;;;6.20;99.90;;;;;;4930194;29;20047;-61
2024/02/25 01:30:07;;;;;;;0.75;0.50;;;6.20;99.90;;;;;;4925390;29;20045;-61
2024/02/25 01:32:34;;;;;;;0.50;0.50;;;6.10;99.90;;;;;;4929721;29;20055;-61
2024/02/25 01:35:01;;;;;;;1.65;0.70;;;6.00;99.90;;;;;;4926058;29;20146;-61
2024/02/25 01:37:28;;;;;;;0.77;0.60;;;5.90;99.90;;;;;;4929233;29;20416;-61
2024/02/25 01:39:54;;;;;;;0.60;0.60;;;5.90;99.90;;;;;;4930202;29;20119;-61
2024/02/25 01:42:22;;;;;;;0.52;0.52;;;5.90;99.90;;;;;;4936621;29;20078;-61
2024/02/25 01:44:56;;;;;;;2.42;0.90;;;5.90;99.90;;;;;;4937566;29;20055;-61
2024/02/25 01:47:23;;;;;;;0.85;0.70;;;6.00;99.90;;;;;;4932940;29;20043;-61
2024/02/25 01:49:50;;;;;;;0.82;0.70;;;6.00;99.90;;;;;;4930851;29;20378;-61
2024/02/25 01:52:19;;;;;;;0.75;0.40;;;6.00;99.90;;;;;;4930436;29;20051;-60
2024/02/25 01:54:46;;;;;;;0.52;0.50;;;6.00;99.90;;;;;;4928548;29;20055;-61
2024/02/25 01:57:13;;;;;;;1.50;0.80;;;6.10;99.90;;;;;;4929965;29;20079;-61
2024/02/25 01:59:40;;;;;;;0.70;0.70;;;6.00;99.90;;;;;;4928377;29;20052;-61
2024/02/25 02:02:14;;;;;;;0.90;0.73;;;6.10;99.90;;;;;;4930223;29;20081;-61
2024/02/25 02:04:42;;;;;;;0.50;0.50;;;6.10;99.90;;;;;;4927688;29;20579;-61
2024/02/25 02:07:09;;;;;;;1.00;0.70;;;6.20;99.90;;;;;;4929812;29;20072;-61
2024/02/25 02:09:36;;;;;;;1.30;0.65;;;6.20;99.90;;;;;;4929696;29;20056;-61
2024/02/25 02:12:03;;;;;;;0.73;0.60;;;6.20;99.90;;;;;;4931174;29;20691;-61
2024/02/25 02:14:30;;;;;;;1.48;0.70;;;6.20;99.90;;;;;;4928516;29;20051;-61
2024/02/25 02:16:57;;;;;;;1.17;0.60;;;6.20;99.90;;;;;;4929434;29;20216;-61
2024/02/25 02:19:24;;;;;;;0.90;0.47;;;6.10;99.90;;;;;;4929937;29;20142;-61
2024/02/25 02:21:53;;;;;;;0.70;0.60;;;6.10;99.90;;;;;;4931971;29;20056;-61
2024/02/25 02:24:20;;;;;;;0.65;0.60;;;6.10;99.90;;;;;;4929900;29;20094;-61
2024/02/25 02:26:46;;;;;;;1.10;0.70;;;6.00;99.90;;;;;;4928883;29;20111;-61
2024/02/25 02:29:13;;;;;;;0.65;0.60;;;6.00;99.90;;;;;;4929909;29;20086;-60
2024/02/25 02:31:40;;;;;;;0.45;0.45;;;6.00;99.90;;;;;;4928185;29;20146;-61
2024/02/25 02:34:07;;;;;;;2.42;0.70;;;6.00;99.90;;;;;;4927081;29;20493;-61
2024/02/25 02:36:34;;;;;;;0.55;0.50;;;6.10;99.90;;;;;;4926460;29;20099;-61
2024/02/25 02:39:00;;;;;;;0.75;0.70;;;6.10;99.90;;;;;;4925833;29;20458;-60
2024/02/25 02:41:27;;;;;;;0.75;0.60;;;6.30;99.90;;;;;;4930652;29;20047;-61
2024/02/25 02:43:56;;;;;;;3.28;0.60;;;6.30;99.90;;;;;;4934660;29;20047;-61
2024/02/25 02:46:22;;;;;;;2.92;0.65;;;6.30;99.90;;;;;;4930138;29;20103;-61
2024/02/25 02:48:49;;;;;;;0.60;0.60;;;6.30;99.90;;;;;;4937080;29;20094;-60
2024/02/25 02:51:16;;;;;;;1.13;0.77;;;6.20;99.90;;;;;;4935462;29;20053;-60
2024/02/25 02:53:43;;;;;;;2.00;0.90;;;6.10;99.90;;;;;;4935565;29;20421;-61
2024/02/25 02:56:10;;;;;;;1.65;0.80;;;6.10;99.90;;;;;;4941751;29;20047;-61
2024/02/25 02:58:37;;;;;;;1.42;0.80;;;6.00;99.90;;;;;;4936051;29;20143;-60
2024/02/25 03:01:03;;;;;;;0.60;0.60;;;5.90;99.90;;;;;;4940735;28;20055;-61
2024/02/25 03:03:30;;;;;;;0.93;0.60;;;5.90;99.90;;;;;;4939459;29;20056;-60
2024/02/25 03:05:57;;;;;;;1.63;0.70;;;5.90;99.90;;;;;;4937281;29;20059;-60
2024/02/25 03:08:24;;;;;;;0.50;0.50;;;5.80;99.90;;;;;;4939384;29;20050;-61
2024/02/25 03:10:51;;;;;;;0.80;0.80;;;5.90;99.90;;;;;;4936992;29;20047;-61
2024/02/25 03:13:18;;;;;;;2.38;0.55;;;5.80;99.90;;;;;;4935418;29;20047;-61
2024/02/25 03:15:45;;;;;;;1.98;0.85;;;5.80;99.90;;;;;;4932849;29;20097;-61
2024/02/25 03:18:11;;;;;;;1.00;0.60;;;5.70;99.90;;;;;;4935963;29;20047;-61
2024/02/25 03:20:38;;;;;;;1.27;0.80;;;5.70;99.90;;;;;;4934758;29;20086;-61
2024/02/25 03:23:05;;;;;;;1.25;0.75;;;5.70;99.90;;;;;;4931924;29;20051;-61
2024/02/25 03:25:32;;;;;;;0.70;0.60;;;5.60;99.90;;;;;;4935488;29;20055;-61
2024/02/25 03:27:58;;;;;;;0.73;0.60;;;5.50;99.90;;;;;;4933303;29;20589;-61
2024/02/25 03:30:26;;;;;;;0.73;0.70;;;5.50;99.90;;;;;;4936078;29;20047;-61
2024/02/25 03:32:55;;;;;;;0.93;0.65;;;5.50;99.90;;;;;;4931524;29;20122;-61
2024/02/25 03:35:22;;;;;;;0.75;0.60;;;5.60;99.90;;;;;;4933242;29;20094;-61
2024/02/25 03:37:50;;;;;;;0.75;0.70;;;5.60;99.90;;;;;;4935586;29;20185;-61
2024/02/25 03:40:17;;;;;;;0.85;0.70;;;5.60;99.90;;;;;;4934258;29;20112;-61
2024/02/25 03:42:44;;;;;;;0.90;0.75;;;5.60;99.90;;;;;;4937437;29;20102;-62
2024/02/25 03:45:10;;;;;;;1.00;0.60;;;5.60;99.90;;;;;;4932407;29;20071;-61
2024/02/25 03:47:37;;;;;;;1.00;0.63;;;5.70;99.90;;;;;;4930850;29;20126;-61
2024/02/25 03:50:05;;;;;;;0.90;0.68;;;5.70;99.90;;;;;;4934483;29;20047;-61
2024/02/25 03:52:31;;;;;;;1.75;0.70;;;5.70;99.90;;;;;;4939767;29;20055;-59
2024/02/25 03:54:58;;;;;;;1.27;0.60;;;5.70;99.90;;;;;;4933742;29;20051;-61
2024/02/25 03:57:25;;;;;;;1.13;0.90;;;5.60;99.90;;;;;;4933484;29;20273;-59
2024/02/25 03:59:52;;;;;;;1.08;0.60;;;5.50;99.90;;;;;;4943829;23;20055;-60
2024/02/25 04:02:18;;;;;;;0.70;0.70;;;5.40;99.90;;;;;;4960636;28;20095;-60
2024/02/25 04:04:46;;;;;;;0.57;0.57;;;5.40;99.90;;;;;;4958598;28;20046;-60
2024/02/25 04:07:13;;;;;;;0.50;0.50;;;5.40;99.90;;;;;;4960734;28;20047;-60
2024/02/25 04:09:41;;;;;;;1.17;0.80;;;5.40;99.90;;;;;;4956083;28;20142;-60
2024/02/25 04:12:08;;;;;;;1.98;0.70;;;5.40;99.90;;;;;;4952541;28;20050;-59
2024/02/25 04:14:35;;;;;;;0.57;0.57;;;5.40;99.90;;;;;;4958471;28;20055;-58
2024/02/25 04:17:02;;;;;;;0.95;0.80;;;5.50;99.90;;;;;;4957017;28;20106;-57
2024/02/25 04:19:29;;;;;;;1.95;0.60;;;5.60;99.90;;;;;;4952822;28;20066;-59
2024/02/25 04:21:56;;;;;;;0.90;0.77;;;5.70;99.90;;;;;;4949731;28;20415;-60
2024/02/25 04:24:23;;;;;;;0.70;0.68;;;5.70;99.90;;;;;;4958777;28;20059;-57
2024/02/25 04:26:50;;;;;;;0.60;0.60;;;5.80;99.90;;;;;;4948883;28;20488;-59
2024/02/25 04:29:17;;;;;;;0.50;0.50;;;5.80;99.90;;;;;;4963798;23;20047;-64
2024/02/25 04:31:46;;;;;;;0.75;0.70;;;5.90;99.90;;;;;;4947809;28;20118;-64
2024/02/25 04:34:13;;;;;;;1.23;0.67;;;6.00;99.90;;;;;;4945636;28;20051;-64
2024/02/25 04:36:40;;;;;;;0.60;0.60;;;6.00;99.90;;;;;;4947941;28;20138;-64
2024/02/25 04:39:10;;;;;;;2.92;0.90;;;6.00;99.90;;;;;;4941554;28;20412;-64
2024/02/25 04:41:37;;;;;;;0.70;0.70;;;6.10;99.90;;;;;;4943554;28;20075;-64
2024/02/25 04:44:06;;;;;;;1.00;0.80;;;6.10;99.90;;;;;;4939743;29;20148;-64
2024/02/25 04:46:33;;;;;;;0.70;0.70;;;6.20;99.90;;;;;;4941837;28;20043;-64
2024/02/25 04:49:00;;;;;;;0.70;0.60;;;6.20;99.90;;;;;;4940638;28;20043;-64
2024/02/25 04:51:27;;;;;;;0.88;0.70;;;6.20;99.90;;;;;;4943906;28;20065;-64
2024/02/25 04:53:57;;;;;;;1.02;0.80;;;6.30;99.90;;;;;;4947452;29;20156;-64
2024/02/25 04:56:27;;;;;;;1.92;1.00;;;6.30;99.90;;;;;;4949170;29;20058;-64
2024/02/25 04:58:55;;;;;;;1.13;0.68;;;6.30;99.90;;;;;;4946951;28;20062;-64
2024/02/25 05:01:22;;;;;;;1.88;0.70;;;6.40;99.90;;;;;;4945230;28;20465;-64
2024/02/25 05:03:48;;;;;;;1.88;0.80;;;6.40;99.90;;;;;;4941008;29;20098;-64
2024/02/25 05:06:16;;;;;;;1.00;0.85;;;6.40;99.90;;;;;;4943853;29;20043;-64
2024/02/25 05:08:43;;;;;;;3.38;0.73;;;6.40;99.90;;;;;;4944876;28;20055;-64
2024/02/25 05:11:09;;;;;;;1.23;0.90;;;6.40;99.90;;;;;;4943454;29;20407;-64
2024/02/25 05:13:36;;;;;;;1.75;0.70;;;6.30;99.90;;;;;;4942666;29;20055;-64
2024/02/25 05:16:07;;;;;;;0.73;0.73;;;6.30;99.90;;;;;;4942044;28;20455;-64
2024/02/25 05:18:35;;;;;;;2.17;0.82;;;6.30;99.90;;;;;;4940866;29;20047;-64
2024/02/25 05:21:02;;;;;;;1.67;0.90;;;6.30;99.90;;;;;;4941545;29;20492;-64
2024/02/25 05:23:29;;;;;;;1.27;1.00;;;6.20;99.90;;;;;;4941702;29;20054;-64
2024/02/25 05:25:56;;;;;;;1.65;0.93;;;6.20;99.90;;;;;;4942799;28;20484;-64
2024/02/25 05:28:24;;;;;;;2.03;1.30;;;6.20;99.90;;;;;;4941824;29;20047;-64
2024/02/25 05:30:51;;;;;;;1.15;1.05;;;6.10;99.90;;;;;;4941235;28;20055;-64
2024/02/25 05:33:18;;;;;;;1.60;1.10;;;6.10;99.90;;;;;;4941948;29;20102;-64
2024/02/25 05:35:46;;;;;;;2.88;1.20;;;6.10;99.90;;;;;;4945433;29;20051;-65
2024/02/25 05:38:13;;;;;;;1.35;1.02;;;6.00;99.90;;;;;;4949353;29;20054;-64
2024/02/25 05:40:43;;;;;;;3.00;1.67;;;6.00;99.90;;;;;;4947404;28;20126;-64
2024/02/25 05:43:10;;;;;;;1.63;1.00;;;6.10;99.90;;;;;;4940954;29;20047;-64
2024/02/25 05:45:36;;;;;;;2.00;1.15;;;6.10;99.90;;;;;;4944063;29;20551;-64
2024/02/25 05:48:03;;;;;;;1.67;1.00;;;6.00;99.90;;;;;;4941358;29;20055;-64
2024/02/25 05:50:30;;;;;;;1.83;1.10;;;6.00;99.90;;;;;;4942182;29;20050;-65
2024/02/25 05:52:57;;;;;;;1.73;1.17;;;6.00;99.90;;;;;;4937940;29;20047;-64
2024/02/25 05:55:24;;;;;;;2.42;1.15;;;5.90;99.90;;;;;;4941077;29;20043;-64
2024/02/25 05:57:51;;;;;;;1.20;1.00;;;5.90;99.90;;;;;;4940842;29;20082;-64
2024/02/25 06:00:18;;;;;;;1.17;0.82;;;5.90;99.90;;;;;;4942781;29;20679;-64
2024/02/25 06:02:47;;;;;;;4.72;1.10;;;6.00;99.90;;;;;;4943661;29;20062;-64
2024/02/25 06:05:17;;;;;;;1.42;1.10;;;6.00;99.90;;;;;;4947813;29;20148;-64
2024/02/25 06:07:45;;;;;;;2.35;1.63;;;5.90;99.90;;;;;;4949282;28;20062;-64
2024/02/25 06:10:12;;;;;;;0.85;0.80;;;6.00;99.90;;;;;;4962912;28;20164;-64
2024/02/25 06:12:39;;;;;;;1.13;0.90;;;5.90;99.90;;;;;;4948486;29;20067;-64
2024/02/25 06:15:10;;;;;;;1.75;1.20;;;6.00;99.90;;;;;;4946869;28;20086;-64
2024/02/25 06:17:38;;;;;;;1.48;1.00;;;5.90;99.90;;;;;;4942909;28;20645;-64
2024/02/25 06:20:10;;;;;;;1.77;0.98;;;5.90;99.90;;;;;;4944329;28;20059;-65
2024/02/25 06:22:41;;;;;;;1.13;1.02;;;6.00;99.90;;;;;;4953347;28;20448;-64
2024/02/25 06:25:08;;;;;;;1.23;1.00;;;6.00;99.90;;;;;;4950121;28;20668;-64
2024/02/25 06:27:36;;;;;;;0.75;0.65;;;6.00;99.90;;;;;;4956340;28;20047;-64
2024/02/25 06:30:07;;;;;;;1.48;0.90;;;6.00;99.90;;;;;;4953752;28;20071;-64
2024/02/25 06:32:34;;;;;;;2.20;1.30;;;6.00;99.90;;;;;;4957011;28;20674;-65
2024/02/25 06:35:03;;;;;;;2.78;1.17;;;6.00;99.90;;;;;;4957929;28;20078;-65
2024/02/25 06:37:33;;;;;;;2.15;0.85;;;6.00;99.90;;;;;;4948102;28;20048;-64
2024/02/25 06:40:01;;;;;;;;;;;6.10;99.90;;;;;;4950404;28;20074;-64
2024/02/25 06:42:28;;;;;;;2.70;1.52;;;6.10;99.90;;;;;;4950987;28;20005;-65
2024/02/25 06:44:54;;;;;;;2.35;1.60;;;6.10;99.90;;;;;;4951473;28;20051;-65
2024/02/25 06:47:21;;;;;;;2.00;1.55;;;6.20;99.90;;;;;;4950929;28;20047;-64
2024/02/25 06:49:48;;;;;;;0.98;0.70;;;6.20;99.90;;;;;;4954948;28;20043;-64
2024/02/25 06:52:15;;;;;;;0.77;0.70;;;6.20;99.90;;;;;;4950281;28;20053;-64
2024/02/25 06:54:43;;;;;;;2.05;0.70;;;6.30;99.90;;;;;;4951512;28;20150;-65
2024/02/25 06:57:15;;;;;;;0.75;0.52;;;6.20;99.90;;;;;;4949914;28;20463;-65
2024/02/25 06:59:42;;;;;;;0.70;0.70;;;6.20;99.90;;;;;;4951954;28;20416;-64
2024/02/25 07:02:09;;;;;;;5.22;1.00;;;6.20;99.90;;;;;;4949572;28;20047;-64
2024/02/25 07:04:36;;;;;;;0.98;0.80;;;6.30;99.90;;;;;;4950889;28;20039;-65
2024/02/25 07:07:03;;;;;;;0.88;0.70;;;6.30;99.90;;;;;;4950830;28;20109;-64
2024/02/25 07:09:32;;;;;;;1.00;0.60;;;6.30;99.90;;;;;;4952635;28;20488;-64
2024/02/25 07:11:58;;;;;;;0.68;0.60;;;6.40;99.90;;;;;;4951394;28;20075;-65
2024/02/25 07:14:28;;;;;;;1.17;0.60;;;6.40;99.90;;;;;;4951482;28;20051;-64
2024/02/25 07:16:55;;;;;;;0.98;0.70;;;6.50;99.90;;;;;;4948884;28;20142;-64
2024/02/25 07:19:21;;;;;;;1.13;0.55;;;6.40;99.90;;;;;;4953012;28;20054;-64
2024/02/25 07:21:48;;;;;;;0.82;0.80;;;6.40;99.90;;;;;;4951049;28;20055;-65
2024/02/25 07:24:16;;;;;;;1.65;0.70;;;6.50;99.90;;;;;;4944943;28;20143;-64
2024/02/25 07:26:45;;;;;;;1.13;0.70;;;6.50;99.90;;;;;;4950429;28;20079;-65
2024/02/25 07:29:12;;;;;;;2.40;0.80;;;6.60;99.90;;;;;;4948785;28;20103;-65
2024/02/25 07:31:39;;;;;;;1.83;0.80;;;6.60;99.90;;;;;;4954264;28;20130;-65
2024/02/25 07:34:07;;;;;;;1.38;0.60;;;6.70;99.90;;;;;;4953190;28;20055;-65
2024/02/25 07:36:34;;;;;;;2.20;1.30;;;6.70;99.90;;;;;;4951076;28;20122;-65
2024/02/25 07:39:01;;;;;;;9.00;4.65;;;6.70;99.90;;;;;;4949196;28;20082;-65
2024/02/25 07:41:28;;;;;;;1.95;1.10;;;6.70;99.90;;;;;;4943908;28;20102;-64
2024/02/25 07:43:55;;;;;;;2.30;0.93;;;6.80;99.90;;;;;;4944165;28;20063;-64
2024/02/25 07:46:24;;;;;;;2.53;1.80;;;6.90;99.90;;;;;;4945041;29;20058;-64
2024/02/25 07:48:50;;;;;;;2.42;1.42;;;6.90;99.90;;;;;;4943409;29;20504;-65
2024/02/25 07:51:18;;;;;;;2.67;0.75;;;6.90;99.90;;;;;;4941814;28;20631;-64
2024/02/25 07:53:45;;;;;;;0.50;0.50;;;6.90;99.90;;;;;;4943855;28;20051;-64
2024/02/25 07:56:23;;;;;;;0.75;0.65;;;6.80;99.90;;;;;;4945513;29;20538;-64
2024/02/25 07:58:49;;;;;;;0.98;0.70;;;6.80;99.90;;;;;;4947117;29;20055;-64
2024/02/25 08:01:16;;;;;;;0.70;0.70;;;6.80;99.90;;;;;;4950289;29;20102;-64
2024/02/25 08:03:43;;;;;;;0.60;0.60;;;6.90;99.90;;;;;;4944751;29;20043;-64
2024/02/25 08:06:10;;;;;;;0.57;0.57;;;7.20;99.90;;;;;;4943450;29;20074;-64
2024/02/25 08:08:37;;;;;;;0.73;0.50;;;7.40;99.90;;;;;;4945595;29;20051;-64
2024/02/25 08:11:04;;;;;;;0.80;0.50;;;7.70;99.90;;;;;;4943046;28;20050;-65
2024/02/25 08:13:31;;;;;;;0.60;0.57;;;7.90;99.90;;;;;;4945035;29;20078;-64
2024/02/25 08:15:58;;;;;;;0.93;0.70;;;7.90;99.90;;;;;;4942052;29;20152;-65
2024/02/25 08:18:24;;;;;;;0.85;0.40;;;7.80;99.90;;;;;;4946444;29;20438;-64
2024/02/25 08:20:51;;;;;;;2.28;0.63;;;7.80;99.90;;;;;;4949494;29;20066;-64
2024/02/25 08:23:18;;;;;;;1.27;0.50;;;7.70;99.90;;;;;;4949158;29;20102;-64
2024/02/25 08:25:45;;;;;;;0.90;0.77;;;7.60;99.90;;;;;;4948048;29;20131;-65
2024/02/25 08:28:12;;;;;;;1.98;0.50;;;7.60;99.90;;;;;;4949235;29;20047;-65
2024/02/25 08:30:39;;;;;;;0.50;0.50;;;7.60;99.90;;;;;;4945232;29;20050;-66
2024/02/25 08:33:06;;;;;;;0.60;0.60;;;7.60;99.90;;;;;;4944191;28;20677;-66
2024/02/25 08:35:33;;;;;;;0.40;0.40;;;7.50;99.90;;;;;;4963761;28;20047;-66
2024/02/25 08:38:00;;;;;;;0.68;0.52;;;7.60;99.90;;;;;;4954757;28;20077;-66
2024/02/25 08:40:27;;;;;;;0.60;0.57;;;7.60;99.90;;;;;;4953339;28;20059;-66
2024/02/25 08:42:54;;;;;;;0.47;0.47;;;7.70;99.90;;;;;;4947132;28;20051;-66
2024/02/25 08:45:20;;;;;;;4.15;0.75;;;7.70;99.90;;;;;;4945995;28;20078;-66
2024/02/25 08:47:47;;;;;;;0.93;0.57;;;7.70;99.90;;;;;;4949989;28;20055;-66
2024/02/25 08:50:14;;;;;;;0.63;0.55;;;7.70;99.90;;;;;;4952499;28;20051;-66
2024/02/25 08:52:41;;;;;;;1.55;1.10;;;7.80;99.90;;;;;;4949675;28;20176;-66
2024/02/25 08:55:08;;;;;;;0.43;0.43;;;7.90;99.90;;;;;;4961375;28;20098;-66
2024/02/25 08:57:35;;;;;;;0.80;0.60;;;7.80;99.90;;;;;;4949570;28;20401;-66
2024/02/25 09:00:03;;;;;;;0.50;0.50;;;7.80;99.90;;;;;;4949575;28;20055;-66
2024/02/25 09:02:30;;;;;;;0.88;0.70;;;7.80;99.90;;;;;;4949411;28;20575;-66
2024/02/25 09:04:56;;;;;;;4.03;1.70;;;7.80;99.90;;;;;;4949281;28;20043;-66
2024/02/25 09:07:24;;;;;;;1.23;0.77;;;7.70;99.90;;;;;;4949344;28;20543;-66
2024/02/25 09:09:51;;;;;;;0.90;0.60;;;7.80;99.90;;;;;;4949350;28;20130;-66
2024/02/25 09:12:18;;;;;;;0.57;0.50;;;7.90;99.90;;;;;;4948712;28;20047;-66
2024/02/25 09:14:45;;;;;;;1.08;0.70;;;8.10;99.90;;;;;;4948481;28;20055;-65
2024/02/25 09:17:14;;;;;;;0.63;0.60;;;8.40;99.90;;;;;;4946086;28;20051;-65
2024/02/25 09:19:41;;;;;;;0.50;0.50;;;8.70;99.90;;;;;;4947146;28;20051;-66
2024/02/25 09:22:08;;;;;;;0.73;0.40;;;8.90;99.90;;;;;;4947934;28;20055;-66
2024/02/25 09:24:34;;;;;;;1.13;0.88;;;9.10;99.90;;;;;;4947299;28;20416;-66
2024/02/25 09:27:03;;;;;;;1.02;0.70;;;9.10;99.90;;;;;;4948157;28;20134;-65
2024/02/25 09:29:30;;;;;;;1.38;0.70;;;9.10;99.90;;;;;;4947036;28;20428;-66
2024/02/25 09:31:56;;;;;;;0.65;0.52;;;8.90;99.90;;;;;;4947417;28;20055;-66
2024/02/25 09:34:23;;;;;;;0.77;0.40;;;8.80;99.90;;;;;;4950627;28;20082;-66
2024/02/25 09:36:50;;;;;;;0.55;0.50;;;8.70;99.90;;;;;;4950183;28;20101;-66
2024/02/25 09:39:18;;;;;;;0.50;0.50;;;8.70;99.90;;;;;;4948621;28;20218;-66
2024/02/25 09:41:45;;;;;;;0.98;0.50;;;8.90;99.90;;;;;;4952864;28;20070;-66
2024/02/25 09:44:22;;;;;;;0.38;0.38;;;8.90;99.90;;;;;;4950699;28;20043;-66
2024/02/25 09:46:54;;;;;;;2.28;0.50;;;8.80;99.90;;;;;;4946631;28;20043;-65
2024/02/25 09:49:24;;;;;;;0.50;0.50;;;8.70;99.90;;;;;;4947600;28;20050;-66
2024/02/25 09:51:52;;;;;;;0.68;0.50;;;8.80;99.90;;;;;;4950761;28;20051;-66
2024/02/25 09:54:19;;;;;;;2.05;0.75;;;8.80;99.90;;;;;;4948725;28;20493;-66
2024/02/25 09:56:50;;;;;;;0.70;0.50;;;8.70;99.90;;;;;;4956531;28;20117;-66
2024/02/25 09:59:18;;;;;;;0.40;0.40;;;8.70;99.90;;;;;;4952530;28;20081;-65
2024/02/25 10:01:48;;;;;;;0.82;0.68;;;8.70;99.90;;;;;;4948539;28;20131;-66
2024/02/25 10:04:15;;;;;;;;;;;8.80;99.90;;;;;;4949634;28;20075;-66
2024/02/25 10:06:45;;;;;;;2.35;0.60;;;8.80;99.90;;;;;;4955090;28;19970;-66
2024/02/25 10:09:12;;;;;;;0.55;0.55;;;8.90;99.90;;;;;;4957289;28;21376;-66
2024/02/25 10:11:41;;;;;;;0.80;0.60;;;8.90;99.90;;;;;;4951568;28;20051;-66
2024/02/25 10:14:10;;;;;;;0.50;0.50;;;9.00;99.90;;;;;;4946401;29;20055;-66
2024/02/25 10:16:37;;;;;;;0.63;0.40;;;9.00;99.90;;;;;;4944633;29;20047;-66
2024/02/25 10:19:04;;;;;;;0.50;0.40;;;9.00;99.90;;;;;;4943265;28;20051;-66
2024/02/25 10:21:32;;;;;;;0.70;0.70;;;9.00;99.90;;;;;;4943913;29;20050;-66
2024/02/25 10:23:59;;;;;;;0.55;0.43;;;9.00;99.90;;;;;;4945304;28;20043;-66
2024/02/25 10:26:25;;;;;;;0.70;0.70;;;9.10;99.90;;;;;;4943944;28;20047;-66
2024/02/25 10:29:06;;;;;;;1.33;0.80;;;9.10;99.90;;;;;;4946405;29;20058;-65
2024/02/25 10:31:33;;;;;;;0.90;0.70;;;9.10;99.90;;;;;;4944790;29;20039;-65
2024/02/25 10:34:00;;;;;;;1.38;0.50;;;9.10;99.90;;;;;;4944794;28;20055;-64
2024/02/25 10:36:29;;;;;;;1.27;0.50;;;9.10;99.90;;;;;;4945479;29;20229;-65
2024/02/25 10:38:56;;;;;;;0.90;0.50;;;9.20;99.90;;;;;;4946295;29;20062;-64
2024/02/25 10:41:24;;;;;;;0.98;0.40;;;9.20;99.90;;;;;;4944463;29;20051;-65
2024/02/25 10:43:56;;;;;;;1.13;0.80;;;9.20;99.90;;;;;;4944800;28;20061;-65
2024/02/25 10:46:38;;;;;;;0.55;0.40;;;9.30;99.90;;;;;;4943001;29;20051;-64
2024/02/25 10:49:06;;;;;;;0.95;0.63;;;9.30;99.90;;;;;;4945402;28;20094;-65
2024/02/25 10:51:34;;;;;;;0.73;0.55;;;9.30;99.90;;;;;;4951501;28;20044;-64
2024/02/25 10:54:02;;;;;;;0.85;0.60;;;9.40;99.90;;;;;;4951205;28;20051;-64
2024/02/25 10:56:29;;;;;;;0.40;0.40;;;9.50;99.90;;;;;;4951569;28;20059;-65
2024/02/25 10:58:58;;;;;;;0.40;0.40;;;9.50;99.90;;;;;;4952138;28;20162;-65
2024/02/25 11:01:25;;;;;;;0.50;0.50;;;9.50;99.90;;;;;;4951479;28;20118;-65
2024/02/25 11:03:52;;;;;;;0.80;0.40;;;9.50;99.90;;;;;;4952496;28;20067;-65
2024/02/25 11:06:33;;;;;;;0.70;0.60;;;9.50;99.90;;;;;;4952046;28;20061;-65
2024/02/25 11:09:12;;;;;;;1.20;0.47;;;9.60;99.90;;;;;;4950928;29;20047;-65
2024/02/25 11:11:44;;;;;;;0.70;0.70;;;9.70;99.90;;;;;;4948446;29;20074;-65
2024/02/25 11:14:35;;;;;;;1.30;0.50;;;9.70;99.90;;;;;;4947063;29;20063;-65
2024/02/25 11:17:03;;;;;;;0.90;0.60;;;9.80;99.90;;;;;;4944404;29;20047;-65
2024/02/25 11:19:31;;;;;;;1.60;0.73;;;9.90;99.90;;;;;;4945126;28;20058;-65
2024/02/25 11:21:58;;;;;;;1.17;0.57;;;9.90;99.90;;;;;;4942000;29;20055;-65
2024/02/25 11:24:47;;;;;;;0.95;0.70;;;9.90;99.90;;;;;;4944419;28;20051;-65
2024/02/25 11:27:17;;;;;;;0.70;0.60;;;10.00;99.90;;;;;;4945174;28;20058;-64
2024/02/25 11:29:44;;;;;;;2.03;0.75;;;10.00;99.90;;;;;;4941101;29;20044;-65
2024/02/25 11:32:34;;;;;;;0.98;0.70;;;10.00;99.90;;;;;;4942718;29;20512;-64
2024/02/25 11:35:02;;;;;;;0.60;0.60;;;10.10;99.90;;;;;;4948324;28;20307;-65
2024/02/25 11:37:29;;;;;;;2.90;0.70;;;10.10;99.90;;;;;;4944217;29;20688;-65
2024/02/25 11:39:56;;;;;;;1.17;0.60;;;10.20;99.90;;;;;;4942605;29;20133;-65
2024/02/25 11:42:23;;;;;;;2.25;0.70;;;10.20;99.90;;;;;;4951023;28;20501;-64
2024/02/25 11:44:50;;;;;;;0.95;0.60;;;10.20;99.90;;;;;;4949228;28;20147;-64
2024/02/25 11:47:17;;;;;;;1.80;0.80;;;10.30;99.90;;;;;;4942742;29;20130;-64
2024/02/25 11:49:43;;;;;;;1.17;0.70;;;10.40;99.90;;;;;;4949265;28;20071;-64
2024/02/25 11:52:10;;;;;;;1.20;0.75;;;10.30;99.90;;;;;;4949243;28;20680;-64
2024/02/25 11:54:37;;;;;;;0.60;0.60;;;10.40;99.90;;;;;;4942709;29;20047;-64
2024/02/25 11:57:04;;;;;;;2.10;0.88;;;10.40;99.90;;;;;;4942997;29;20498;-64
2024/02/25 11:59:32;;;;;;;0.90;0.60;;;10.50;99.90;;;;;;4945405;29;20086;-64
2024/02/25 12:02:02;;;;;;;0.70;0.60;;;10.50;99.90;;;;;;4941865;29;20106;-64
2024/02/25 12:04:31;;;;;;;0.80;0.80;;;10.60;99.90;;;;;;4943702;29;20054;-64
2024/02/25 12:07:00;;;;;;;0.70;0.60;;;10.60;99.90;;;;;;4945067;29;20047;-64
2024/02/25 12:09:27;;;;;;;0.68;0.68;;;10.60;99.90;;;;;;4945288;29;20043;-64
2024/02/25 12:11:53;;;;;;;0.68;0.68;;;10.70;99.90;;;;;;4943463;29;20313;-65
2024/02/25 12:14:20;;;;;;;1.05;0.70;;;10.80;99.90;;;;;;4940989;29;20063;-65
2024/02/25 12:16:49;;;;;;;1.27;0.57;;;10.90;99.90;;;;;;4942811;29;20051;-65
2024/02/25 12:19:17;;;;;;;0.40;0.40;;;10.80;99.90;;;;;;4943121;28;20055;-65
2024/02/25 12:21:49;;;;;;;0.63;0.50;;;10.80;99.90;;;;;;4943137;29;20054;-65
2024/02/25 12:24:17;;;;;;;1.00;0.60;;;10.80;99.90;;;;;;4941243;29;20122;-64
2024/02/25 12:26:49;;;;;;;1.30;0.70;;;10.90;99.90;;;;;;4942060;29;20131;-65
2024/02/25 12:29:16;;;;;;;1.13;0.70;;;11.00;99.90;;;;;;4941885;28;20519;-64
2024/02/25 12:31:43;;;;;;;0.60;0.60;;;11.10;99.90;;;;;;4941754;28;20643;-64
2024/02/25 12:34:10;;;;;;;0.82;0.60;;;11.00;99.90;;;;;;4942810;28;20047;-64
2024/02/25 12:36:37;;;;;;;1.02;0.47;;;11.10;99.90;;;;;;4943920;28;20055;-65
2024/02/25 12:39:10;;;;;;;0.63;0.52;;;11.10;99.90;;;;;;4943147;28;20786;-64
2024/02/25 12:41:37;;;;;;;0.80;0.50;;;11.20;99.90;;;;;;4942085;29;20049;-65
2024/02/25 12:44:05;;;;;;;0.50;0.50;;;11.20;99.90;;;;;;4940057;29;20055;-65
2024/02/25 12:46:33;;;;;;;0.85;0.60;;;11.20;99.90;;;;;;4942475;28;20062;-65
2024/02/25 12:49:12;;;;;;;0.93;0.77;;;11.20;99.90;;;;;;4941266;28;20059;-64
2024/02/25 12:51:43;;;;;;;0.70;0.50;;;11.20;99.90;;;;;;4946283;28;20106;-64
2024/02/25 12:54:10;;;;;;;0.52;0.52;;;11.20;99.90;;;;;;4948759;28;20114;-64
2024/02/25 12:56:38;;;;;;;0.77;0.50;;;11.30;99.90;;;;;;4949509;29;20095;-65
2024/02/25 12:59:07;;;;;;;2.00;0.85;;;11.40;99.90;;;;;;4949287;28;20055;-65